This is the latest recevied weather packets stored in our database for station/object KD4MBW. If no packets are shown the sender has not sent any weather packets the latest 1 day(s).
| Time | Temp. | Humidity | Pressure | Rain* | Wind** | Luminosity | Snow |
|---|---|---|---|---|---|---|---|
| 1777994359 | 24.44° C | 62% | 1016.8 hPa | 0 mm | 1.34 m/s, 98° | 616 W/m² | - |
| 1777994050 | 23.89° C | 63% | 1016.6 hPa | 0 mm | 1.79 m/s, 191° | 598 W/m² | - |
| 1777993748 | 24.44° C | 63% | 1016.2 hPa | 0 mm | 3.13 m/s, 137° | 691 W/m² | - |
| 1777993444 | 23.89° C | 66% | 1016.7 hPa | 0 mm | 1.34 m/s, 166° | 643 W/m² | - |
| 1777993138 | 23.33° C | 65% | 1016.7 hPa | 0 mm | 2.68 m/s, 132° | 576 W/m² | - |
| 1777992837 | 23.33° C | 67% | 1016.7 hPa | 0 mm | 0.89 m/s, 110° | 602 W/m² | - |
| 1777992534 | 23.33° C | 67% | 1016.6 hPa | 0 mm | 0.89 m/s, 305° | 608 W/m² | - |
| 1777992233 | 22.78° C | 68% | 1016.5 hPa | 0 mm | 2.24 m/s, 112° | 574 W/m² | - |
| 1777991929 | 22.78° C | 69% | 1016.6 hPa | 0 mm | 1.79 m/s, 166° | 447 W/m² | - |
| 1777991627 | 22.78° C | 69% | 1016.5 hPa | 0 mm | 1.79 m/s, 131° | 496 W/m² | - |
| 1777991324 | 22.22° C | 69% | 1016.6 hPa | 0 mm | 1.79 m/s, 150° | 521 W/m² | - |
| 1777991021 | 22.22° C | 69% | 1016.4 hPa | 0 mm | 0.89 m/s, 227° | 483 W/m² | - |
| 1777990719 | 22.78° C | 67% | 1016.5 hPa | 0 mm | 1.79 m/s, 60° | 519 W/m² | - |
| 1777990416 | 22.22° C | 67% | 1016.2 hPa | 0 mm | 3.13 m/s, 132° | 520 W/m² | - |
| 1777990112 | 21.67° C | 71% | 1016.3 hPa | 0 mm | 0.45 m/s, 212° | 500 W/m² | - |
| 1777989809 | 21.67° C | 71% | 1016.5 hPa | 0 mm | 0.89 m/s, 337° | 488 W/m² | - |
| 1777989506 | 21.67° C | 72% | 1016.4 hPa | 0 mm | 1.34 m/s, 46° | 468 W/m² | - |
| 1777989202 | 21.11° C | 75% | 1016.5 hPa | 0 mm | 0.89 m/s, 253° | 461 W/m² | - |
| 1777988898 | 20.56° C | 78% | 1016.6 hPa | 0 mm | 0.89 m/s, 75° | 367 W/m² | - |
| 1777988595 | 20° C | 80% | 1016.4 hPa | 0 mm | 0.89 m/s, 104° | 424 W/m² | - |
| 1777988292 | 20° C | 80% | 1016.2 hPa | 0 mm | 2.68 m/s, 73° | 382 W/m² | - |
| 1777987989 | 19.44° C | 82% | 1016.2 hPa | 0 mm | 1.79 m/s, 78° | 353 W/m² | - |
| 1777987684 | 19.44° C | 82% | 1016.5 hPa | 0 mm | 1.34 m/s, 107° | 266 W/m² | - |
| 1777987382 | 18.89° C | 83% | 1016.4 hPa | 0 mm | 1.79 m/s, 97° | 249 W/m² | - |
| 1777987079 | 18.33° C | 84% | 1016.4 hPa | 0 mm | 0.89 m/s, 88° | 273 W/m² | - |
* Rain latest hour (hover to see other rain measurements)
** Current wind speed in m/s (hover to see current wind gust speed)